Time;durP1;ratioP1;P1;durP2;ratioP2;P2;SDS_P1;SDS_P2;PMS_P1;PMS_P2;Temp;Humidity;BMP_temperature;BMP_pressure;BME280_temperature;BME280_humidity;BME280_pressure;Samples;Min_cycle;Max_cycle;Signal;HPM_P1;HPM_P2
2022/02/11 00:00:13;;;;;;;;;;;;;;;5.64;100.00;99519.69;5088354;28;19922;-60
2022/02/11 00:05:34;;;;;;;;;;;;;;;4.44;100.00;99521.53;5088101;28;20436;-59
2022/02/11 00:07:56;;;;;;;;;;;;;;;5.12;100.00;99525.78;5086888;28;20384;-60
2022/02/11 00:10:22;;;;;;;;;;;;;;;4.59;100.00;99532.63;5088078;28;19970;-59
2022/02/11 00:12:47;;;;;;;;;;;;;;;4.91;100.00;99533.47;5087601;28;19981;-59
2022/02/11 00:17:50;;;;;;;;;;;;;;;5.70;100.00;99527.31;5088273;28;20007;-59
2022/02/11 00:20:16;;;;;;;;;;;;;;;5.88;100.00;99523.84;5087708;28;20011;-57
2022/02/11 00:22:41;;;;;;;;;;;;;;;4.44;100.00;99512.19;5086881;28;20352;-59
2022/02/11 00:25:07;;;;;;;;;;;;;;;4.88;100.00;99524.13;5087482;28;19959;-59
2022/02/11 00:33:23;;;;;;;;;;;;;;;4.43;100.00;99522.41;5062720;28;19963;-59
2022/02/11 00:35:55;;;;;;;;;;;;;;;4.86;100.00;99525.81;5086944;28;19920;-60
2022/02/11 00:38:30;;;;;;;;;;;;;;;4.76;100.00;99524.09;5085799;28;19916;-60
2022/02/11 01:03:15;;;;;;;;;;;;;;;4.22;100.00;99536.81;5030495;28;20025;-60
2022/02/11 01:05:38;;;;;;;;;;;;;;;4.59;100.00;99537.72;5028515;28;20389;-58
2022/02/11 01:08:03;;;;;;;;;;;;;;;4.28;100.00;99544.47;5030824;28;19916;-57
2022/02/11 01:10:31;;;;;;;;;;;;;;;3.85;100.00;99540.94;5030471;28;19921;-59
2022/02/11 01:12:57;;;;;;;;;;;;;;;4.15;100.00;99533.41;5028749;28;20460;-59
2022/02/11 01:15:23;;;;;;;;;;;;;;;4.29;100.00;99538.53;5030221;28;19921;-59
2022/02/11 01:17:53;;;;;;;;;;;;;;;3.64;100.00;99534.06;5030378;28;19913;-59
2022/02/11 01:20:28;;;;;;;;;;;;;;;4.21;100.00;99540.19;5052042;28;20007;-60
2022/02/11 01:26:25;;;;;;;;;;;;;;;4.12;100.00;99530.81;5041947;28;20454;-59
2022/02/11 01:29:04;;;;;;;;;;;;;;;3.94;100.00;99530.78;5041800;28;20036;-59
2022/02/11 01:31:51;;;;;;;;;;;;;;;4.42;97.30;99538.53;5041536;28;19927;-60
2022/02/11 01:40:12;;;;;;;;;;;;;;;3.62;90.48;99534.03;4983468;28;20375;-60
2022/02/11 02:05:48;;;;;;;;;;;;;;;4.08;67.90;99529.13;4983035;28;19980;-60
2022/02/11 02:24:17;;;;;;;;;;;;;;;4.33;82.29;99490.94;5047177;28;20005;-61
2022/02/11 02:58:24;;;;;;;;;;;;;;;3.87;87.44;99484.03;5024135;28;20477;-62
2022/02/11 03:49:38;;;;;;;;;;;;;;;3.68;79.57;99485.69;5051589;28;19927;-59
2022/02/11 03:53:31;;;;;;;;;;;;;;;3.34;80.19;99487.25;5057569;28;20012;-59
2022/02/11 04:22:59;;;;;;;;;;;;;;;4.19;77.44;99486.66;5005633;28;19976;-58
2022/02/11 04:53:36;;;;;;;;;;;;;;;3.61;75.19;99522.16;5088615;28;19993;-59
2022/02/11 04:55:43;;;;;;;;;;;;;;;3.71;70.01;99526.44;5086596;28;19931;-58
2022/02/11 05:00:52;;;;;;;;;;;;;;;3.59;68.28;99523.00;5086855;28;20485;-57
2022/02/11 05:03:17;;;;;;;;;;;;;;;3.82;66.36;99540.94;5055434;28;19920;-58
2022/02/11 05:05:52;;;;;;;;;;;;;;;3.92;65.29;99524.81;5055206;28;19917;-58
2022/02/11 05:08:21;;;;;;;;;;;;;;;3.80;64.21;99522.25;5053301;28;19929;-59
2022/02/11 05:10:47;;;;;;;;;;;;;;;3.74;63.80;99512.88;5052906;28;20037;-59
2022/02/11 05:13:12;;;;;;;;;;;;;;;4.33;58.88;99529.16;5054250;28;20201;-59
2022/02/11 05:15:37;;;;;;;;;;;;;;;4.50;58.50;99524.13;5052168;28;20295;-60
2022/02/11 05:18:03;;;;;;;;;;;;;;;3.85;64.60;99525.66;5055236;28;20693;-58
2022/02/11 05:20:28;;;;;;;;;;;;;;;4.04;58.83;99527.44;5053429;28;20874;-59
2022/02/11 05:23:10;;;;;;;;;;;;;;;3.77;59.32;99533.28;5051876;28;19921;-59
2022/02/11 05:25:37;;;;;;;;;;;;;;;3.60;55.08;99538.28;5055016;28;19975;-60
2022/02/11 05:28:02;;;;;;;;;;;;;;;3.96;52.83;99541.81;5054907;28;19924;-60
2022/02/11 05:30:36;;;;;;;;;;;;;;;3.88;52.56;99546.06;5053275;28;20400;-59
2022/02/11 05:33:02;;;;;;;;;;;;;;;4.05;52.06;99544.41;5050182;28;20058;-60
2022/02/11 05:38:36;;;;;;;;;;;;;;;3.74;59.38;99549.41;5052506;28;19982;-59
2022/02/11 05:41:03;;;;;;;;;;;;;;;3.93;53.98;99539.28;5054403;28;19919;-59
2022/02/11 05:43:29;;;;;;;;;;;;;;;3.55;56.03;99547.59;5053548;28;19924;-59
2022/02/11 05:45:54;;;;;;;;;;;;;;;3.68;52.10;99549.38;5054436;28;20251;-59
2022/02/11 05:48:19;;;;;;;;;;;;;;;3.51;51.92;99561.16;5052560;28;20457;-59
2022/02/11 05:53:47;;;;;;;;;;;;;;;3.73;46.17;99562.97;5052822;28;19969;-61
2022/02/11 06:02:45;;;;;;;;;;;;;;;3.55;40.13;99575.59;5054241;28;19996;-58
2022/02/11 06:05:11;;;;;;;;;;;;;;;3.57;38.71;99596.84;5087145;28;19924;-58
2022/02/11 06:07:36;;;;;;;;;;;;;;;3.51;35.53;99584.06;5088017;28;19927;-58
2022/02/11 06:10:02;;;;;;;;;;;;;;;3.75;31.89;99586.75;5087312;28;19927;-57
2022/02/11 06:12:27;;;;;;;;;;;;;;;3.90;31.61;99590.22;5086383;28;20264;-59
2022/02/11 06:14:53;;;;;;;;;;;;;;;3.54;32.64;99591.75;5087950;28;19912;-59
2022/02/11 06:17:20;;;;;;;;;;;;;;;3.55;30.21;99601.06;5086572;28;20227;-60
2022/02/11 06:19:46;;;;;;;;;;;;;;;3.44;26.70;99600.16;5069408;28;20558;-61
2022/02/11 06:22:11;;;;;;;;;;;;;;;3.64;24.64;99605.38;5087651;28;19923;-60
2022/02/11 06:24:37;;;;;;;;;;;;;;;3.64;22.35;99618.09;5088085;28;19919;-60
2022/02/11 06:27:02;;;;;;;;;;;;;;;3.60;21.43;99612.13;5087528;28;19916;-60
2022/02/11 06:29:28;;;;;;;;;;;;;;;3.59;20.53;99609.59;5087085;28;19924;-60
2022/02/11 06:31:53;;;;;;;;;;;;;;;3.61;21.88;99618.09;5053039;28;20574;-58
2022/02/11 06:34:18;;;;;;;;;;;;;;;3.65;19.13;99635.97;5087682;28;19916;-60
2022/02/11 06:36:43;;;;;;;;;;;;;;;3.88;18.73;99642.88;5087017;28;20224;-59
2022/02/11 06:39:09;;;;;;;;;;;;;;;3.56;20.16;99641.00;5088021;28;19912;-58
2022/02/11 06:41:34;;;;;;;;;;;;;;;3.74;20.32;99640.22;5087029;28;19912;-59
2022/02/11 06:44:00;;;;;;;;;;;;;;;3.69;18.88;99647.84;5088359;28;19923;-59
2022/02/11 06:46:25;;;;;;;;;;;;;;;3.85;17.63;99642.84;5087652;28;20362;-60
2022/02/11 06:48:51;;;;;;;;;;;;;;;3.83;17.53;99636.88;5087114;28;19928;-59
2022/02/11 06:51:16;;;;;;;;;;;;;;;3.59;19.05;99643.56;5069135;28;19912;-60
2022/02/11 06:53:42;;;;;;;;;;;;;;;3.60;20.04;99650.34;5087813;28;19919;-59
2022/02/11 06:56:08;;;;;;;;;;;;;;;3.65;19.50;99648.69;5069548;28;20388;-59
2022/02/11 06:58:33;;;;;;;;;;;;;;;3.98;19.43;99655.66;5087662;28;19916;-60
2022/02/11 07:00:58;;;;;;;;;;;;;;;3.53;21.64;99651.13;5087586;28;20373;-60
2022/02/11 07:03:24;;;;;;;;;;;;;;;3.82;18.27;99651.31;5087773;28;19920;-59
2022/02/11 07:05:51;;;;;;;;;;;;;;;3.50;16.62;99659.59;5087696;28;20456;-59
2022/02/11 07:08:17;;;;;;;;;;;;;;;3.41;14.90;99661.25;5088265;28;19919;-60
2022/02/11 07:10:42;;;;;;;;;;;;;;;3.69;14.15;99680.97;5087227;28;19916;-60
2022/02/11 07:13:13;;;;;;;;;;;;;;;3.75;13.75;99673.38;5088061;28;19916;-58
2022/02/11 07:15:38;;;;;;;;;;;;;;;3.77;12.43;99681.03;5087180;28;20495;-60
2022/02/11 07:18:03;;;;;;;;;;;;;;;3.75;12.26;99693.75;5087261;28;19912;-59
2022/02/11 07:20:29;;;;;;;;;;;;;;;3.77;10.99;99694.59;5087665;28;19912;-59
2022/02/11 07:22:54;;;;;;;;;;;;;;;3.79;10.08;99704.81;5069399;28;19912;-60
2022/02/11 07:25:19;;;;;;;;;;;;;;;3.59;8.94;99727.59;5091742;28;19915;-60
2022/02/11 07:27:45;;;;;;;;;;;;;;;3.34;8.48;99724.00;5092043;28;19912;-60
2022/02/11 07:30:11;;;;;;;;;;;;;;;3.37;4.08;99705.34;5090607;28;19920;-60
2022/02/11 07:32:36;;;;;;;;;;;;;;;3.47;2.74;99717.31;5092177;28;19912;-58
2022/02/11 07:35:02;;;;;;;;;;;;;;;3.63;1.54;99729.31;5091871;28;19966;-59
2022/02/11 07:37:28;;;;;;;;;;;;;;;3.76;1.80;99726.03;5091051;28;19999;-60
2022/02/11 07:39:53;;;;;;;;;;;;;;;3.67;1.62;99735.28;5091026;28;20015;-60
2022/02/11 07:42:19;;;;;;;;;;;;;;;3.80;0.79;99736.25;5091434;28;19912;-59
2022/02/11 07:44:45;;;;;;;;;;;;;;;3.44;2.84;99742.75;5091611;28;20340;-59
2022/02/11 07:47:10;;;;;;;;;;;;;;;3.43;3.79;99762.25;5091524;28;19972;-59
2022/02/11 07:49:37;;;;;;;;;;;;;;;3.54;4.02;99754.72;5090877;28;20291;-59
2022/02/11 07:52:06;;;;;;;;;;;;;;;3.59;6.27;99755.59;5090249;28;19920;-60
2022/02/11 07:54:35;;;;;;;;;;;;;;;3.65;5.43;99759.88;5091049;28;20031;-60
2022/02/11 07:57:04;;;;;;;;;;;;;;;3.65;6.47;99772.63;5072498;28;19913;-60
2022/02/11 07:59:35;;;;;;;;;;;;;;;3.89;5.14;99766.88;5073376;28;19970;-59
2022/02/11 08:02:00;;;;;;;;;;;;;;;3.72;7.33;99777.78;5096875;22;19929;-83
2022/02/11 08:04:25;;;;;;;;;;;;;;;3.73;7.04;99773.56;5036227;28;19944;-85
2022/02/11 08:06:51;;;;;;;;;;;;;;;3.54;7.40;99775.09;5036454;28;19928;-84
2022/02/11 08:09:16;;;;;;;;;;;;;;;3.47;5.08;99778.44;5031764;28;19921;-85
2022/02/11 08:11:41;;;;;;;;;;;;;;;3.63;1.49;99779.44;5032473;28;19921;-84
2022/02/11 08:14:07;;;;;;;;;;;;;;;3.56;0.91;99799.72;5049517;28;19913;-84
2022/02/11 08:16:32;;;;;;;;;;;;;;;3.48;0.00;99813.22;5050923;28;19917;-89
2022/02/11 08:18:58;;;;;;;;;;;;;;;3.72;0.00;99813.47;5025701;28;19913;-90
2022/02/11 08:21:24;;;;;;;;;;;;;;;3.58;1.42;99809.06;5024152;28;19999;-86
2022/02/11 08:23:49;;;;;;;;;;;;;;;3.94;1.31;99811.06;5043329;28;20296;-89
2022/02/11 08:26:15;;;;;;;;;;;;;;;3.78;7.26;99805.84;5029423;28;19943;-86
2022/02/11 08:28:40;;;;;;;;;;;;;;;3.77;11.54;99813.50;5020740;28;19917;-86
2022/02/11 08:31:06;;;;;;;;;;;;;;;3.74;13.82;99809.25;5043228;28;19916;-84
2022/02/11 08:33:31;;;;;;;;;;;;;;;4.00;17.23;99818.78;5033177;28;19971;-86
2022/02/11 08:35:56;;;;;;;;;;;;;;;4.03;17.70;99821.34;5022987;28;19956;-84
2022/02/11 08:38:23;;;;;;;;;;;;;;;3.59;24.32;99829.47;5027196;28;19912;-85
2022/02/11 08:40:48;;;;;;;;;;;;;;;3.67;23.46;99825.31;5046260;28;19912;-88
2022/02/11 08:43:13;;;;;;;;;;;;;;;3.59;25.01;99852.38;5054456;28;19928;-84
2022/02/11 08:45:40;;;;;;;;;;;;;;;3.71;24.98;99855.03;5043916;28;19924;-84
2022/02/11 08:48:06;;;;;;;;;;;;;;;3.64;25.99;99863.47;5024985;28;19916;-84
2022/02/11 08:50:31;;;;;;;;;;;;;;;3.53;27.08;99900.69;5045696;28;20409;-84
2022/02/11 08:52:57;;;;;;;;;;;;;;;3.59;27.77;99885.50;5059529;28;20509;-83
2022/02/11 08:55:23;;;;;;;;;;;;;;;3.66;29.37;99879.63;5021617;28;19912;-87
2022/02/11 08:57:50;;;;;;;;;;;;;;;3.53;33.54;99872.69;5022898;28;20514;-86
2022/02/11 09:00:16;;;;;;;;;;;;;;;3.74;32.28;99885.66;5049807;28;19916;-85
2022/02/11 09:02:42;;;;;;;;;;;;;;;3.67;35.48;99899.19;5034037;28;19943;-87
2022/02/11 09:05:07;;;;;;;;;;;;;;;3.60;39.26;99915.22;5044376;28;19917;-85
2022/02/11 09:07:32;;;;;;;;;;;;;;;3.87;39.71;99906.16;5049383;28;19999;-84
2022/02/11 09:09:58;;;;;;;;;;;;;;;3.65;43.08;99905.06;5043735;28;19949;-85
2022/02/11 09:12:23;;;;;;;;;;;;;;;3.94;42.09;99902.81;5057566;28;19916;-84
2022/02/11 09:14:48;;;;;;;;;;;;;;;3.87;43.83;99934.19;5031327;28;19917;-85
2022/02/11 09:17:13;;;;;;;;;;;;;;;3.91;44.12;99930.84;5022054;28;19962;-85
2022/02/11 09:19:39;;;;;;;;;;;;;;;3.68;47.55;99939.09;5023902;28;20326;-83
2022/02/11 09:22:04;;;;;;;;;;;;;;;3.57;46.10;99938.09;5056833;28;19917;-86
2022/02/11 09:24:29;;;;;;;;;;;;;;;3.55;41.05;99945.72;5025434;28;19936;-84
2022/02/11 09:26:55;;;;;;;;;;;;;;;3.54;38.89;99963.56;5024362;28;19924;-86
2022/02/11 09:29:20;;;;;;;;;;;;;;;3.78;39.90;99958.72;5022615;28;19923;-84
2022/02/11 09:31:45;;;;;;;;;;;;;;;3.57;43.61;99953.38;5056563;28;19917;-84
2022/02/11 09:34:12;;;;;;;;;;;;;;;3.54;47.08;99968.66;5043606;28;19916;-87
2022/02/11 09:36:39;;;;;;;;;;;;;;;3.44;44.22;99967.66;5055784;28;19964;-84
2022/02/11 09:39:05;;;;;;;;;;;;;;;3.53;39.66;99977.94;5021069;28;19913;-86
2022/02/11 09:41:31;;;;;;;;;;;;;;;3.63;36.20;99971.31;5021630;28;19916;-86
2022/02/11 09:44:00;;;;;;;;;;;;;;;3.42;33.17;99993.94;5032027;28;19923;-85
2022/02/11 09:46:26;;;;;;;;;;;;;;;3.40;27.92;99987.97;5031299;28;19921;-86
2022/02/11 09:48:52;;;;;;;;;;;;;;;3.47;26.28;100005.06;5022212;28;19916;-84
2022/02/11 09:51:18;;;;;;;;;;;;;;;3.55;23.84;100000.91;5041614;28;19913;-85
2022/02/11 09:53:43;;;;;;;;;;;;;;;3.62;23.60;99997.59;5044723;28;20295;-84
2022/02/11 09:56:09;;;;;;;;;;;;;;;3.71;24.21;100005.34;5020888;28;19916;-85
2022/02/11 09:58:35;;;;;;;;;;;;;;;3.62;26.85;100017.13;5030951;28;19917;-86
2022/02/11 10:01:01;;;;;;;;;;;;;;;3.61;28.45;100021.38;5054230;28;19927;-86
2022/02/11 10:03:27;;;;;;;;;;;;;;;3.68;29.51;100023.16;5055218;28;19999;-84
2022/02/11 10:05:57;;;;;;;;;;;;;;;3.70;29.40;100010.44;5046985;28;20610;-84
2022/02/11 10:08:23;;;;;;;;;;;;;;;3.71;29.80;100030.81;5040691;28;19912;-84
2022/02/11 10:10:52;;;;;;;;;;;;;;;3.69;31.35;100022.28;5032425;28;19927;-88
2022/02/11 10:13:25;;;;;;;;;;;;;;;3.80;29.94;100026.69;5022362;28;19912;-84
2022/02/11 10:15:58;;;;;;;;;;;;;;;3.99;31.21;100033.69;5031664;28;19913;-86
2022/02/11 10:18:27;;;;;;;;;;;;;;;4.03;30.98;100054.97;5016942;28;20164;-84
2022/02/11 10:20:56;;;;;;;;;;;;;;;3.78;30.53;100052.97;5020575;28;20898;-86
2022/02/11 10:23:23;;;;;;;;;;;;;;;3.74;29.07;100073.31;5055044;28;19917;-86
2022/02/11 10:25:56;;;;;;;;;;;;;;;4.09;25.55;100055.06;5020095;28;19916;-85
2022/02/11 10:28:26;;;;;;;;;;;;;;;4.12;27.15;100076.31;5020860;28;19917;-86
2022/02/11 10:31:05;;;;;;;;;;;;;;;4.09;28.61;100071.19;5040755;28;20380;-85
2022/02/11 10:33:47;;;;;;;;;;;;;;;3.95;29.64;100093.13;5022894;28;19923;-85
2022/02/11 10:36:13;;;;;;;;;;;;;;;4.13;30.22;100083.16;5048698;28;19912;-88
2022/02/11 10:38:38;;;;;;;;;;;;;;;4.26;32.10;100083.28;5048365;28;19916;-86
2022/02/11 10:41:03;;;;;;;;;;;;;;;4.11;33.73;100082.28;5040510;28;19912;-84
2022/02/11 10:43:31;;;;;;;;;;;;;;;4.18;36.24;100096.78;5023531;28;19999;-84
2022/02/11 10:46:01;;;;;;;;;;;;;;;3.98;41.36;100100.81;5042235;28;19916;-84
2022/02/11 10:48:27;;;;;;;;;;;;;;;4.16;40.50;100101.03;5043663;28;19916;-84
2022/02/11 10:50:55;;;;;;;;;;;;;;;4.24;44.54;100110.44;5024157;28;19966;-84
2022/02/11 10:53:21;;;;;;;;;;;;;;;4.13;48.61;100110.34;5043183;28;19919;-85
2022/02/11 10:55:47;;;;;;;;;;;;;;;4.17;52.96;100120.59;5024543;28;19967;-85
2022/02/11 10:58:17;;;;;;;;;;;;;;;4.28;55.15;100107.94;5041286;28;19952;-86
2022/02/11 11:00:42;;;;;;;;;;;;;;;4.22;62.10;100119.78;5033778;28;19923;-84
2022/02/11 11:03:10;;;;;;;;;;;;;;;4.13;69.81;100118.84;5030670;28;19921;-84
2022/02/11 11:05:36;;;;;;;;;;;;;;;4.34;71.35;100125.88;5062613;28;20289;-87
2022/02/11 11:08:01;;;;;;;;;;;;;;;4.34;73.81;100132.69;5046406;28;19924;-84
2022/02/11 11:10:27;;;;;;;;;;;;;;;4.36;77.25;100153.97;5025180;28;19920;-86
2022/02/11 11:12:54;;;;;;;;;;;;;;;4.41;78.81;100129.34;5048974;28;19913;-85
2022/02/11 11:15:20;;;;;;;;;;;;;;;4.09;84.33;100164.66;5047240;28;20322;-86
2022/02/11 11:17:46;;;;;;;;;;;;;;;4.18;87.08;100155.44;5035622;28;19942;-85
2022/02/11 11:20:11;;;;;;;;;;;;;;;4.27;89.40;100154.69;5081737;28;19963;-87
2022/02/11 11:22:37;;;;;;;;;;;;;;;4.33;91.24;100171.75;5033044;28;19912;-85
2022/02/11 11:25:06;;;;;;;;;;;;;;;4.52;90.58;100165.19;5029752;28;19918;-88
2022/02/11 11:27:43;;;;;;;;;;;;;;;4.51;92.34;100160.91;5026470;28;19912;-86
2022/02/11 11:30:28;;;;;;;;;;;;;;;4.48;95.57;100171.94;5056010;28;19921;-85
2022/02/11 11:33:09;;;;;;;;;;;;;;;4.48;97.00;100161.75;5060042;28;19921;-86
2022/02/11 11:35:34;;;;;;;;;;;;;;;4.44;99.50;100152.34;5054510;28;19913;-88
2022/02/11 11:38:18;;;;;;;;;;;;;;;4.51;99.31;100176.22;5059636;28;19970;-86
2022/02/11 11:41:04;;;;;;;;;;;;;;;4.48;100.00;100191.50;5043496;28;19955;-86
2022/02/11 11:43:34;;;;;;;;;;;;;;;4.47;100.00;100170.25;5029931;28;19912;-84
2022/02/11 11:46:22;;;;;;;;;;;;;;;4.56;100.00;100170.34;5053526;28;19913;-81
2022/02/11 11:48:50;;;;;;;;;;;;;;;4.65;100.00;100174.66;5034860;28;19916;-85
2022/02/11 11:51:15;;;;;;;;;;;;;;;4.54;100.00;100187.31;5047189;28;19921;-84
2022/02/11 11:53:41;;;;;;;;;;;;;;;4.49;100.00;100177.88;5052450;28;19967;-84
2022/02/11 11:56:26;;;;;;;;;;;;;;;4.40;100.00;100168.44;5048034;28;20379;-85
2022/02/11 11:58:51;;;;;;;;;;;;;;;4.58;100.00;100163.56;5053483;28;19967;-84
2022/02/11 12:01:17;;;;;;;;;;;;;;;4.72;100.00;100175.59;5025513;28;19955;-84
2022/02/11 12:04:01;;;;;;;;;;;;;;;4.54;100.00;100194.97;5026520;28;19931;-84
2022/02/11 12:06:27;;;;;;;;;;;;;;;4.57;100.00;100189.06;5060836;28;19916;-86
2022/02/11 12:08:52;;;;;;;;;;;;;;;4.60;100.00;100172.06;5046543;28;19999;-85
2022/02/11 12:11:18;;;;;;;;;;;;;;;4.64;100.00;100192.53;5046045;28;19912;-86
2022/02/11 12:13:43;;;;;;;;;;;;;;;4.82;100.00;100195.28;5046383;28;20277;-84
2022/02/11 12:16:09;;;;;;;;;;;;;;;4.73;100.00;100196.03;5035828;28;19913;-85
2022/02/11 12:18:35;;;;;;;;;;;;;;;4.51;100.00;100228.09;5045776;28;19912;-85
2022/02/11 12:21:01;;;;;;;;;;;;;;;3.53;100.00;100267.44;5025604;28;20273;-87
2022/02/11 12:29:11;;;;;;;;;;;;;;;2.86;76.35;100295.91;5013293;28;20012;-84
2022/02/11 12:31:36;;;;;;;;;;;;;;;3.26;63.16;100303.47;5026549;28;20008;-84
2022/02/11 12:34:15;;;;;;;;;;;;;;;3.29;56.32;100312.03;5027672;28;20182;-86
2022/02/11 12:36:40;;;;;;;;;;;;;;;3.61;48.83;100321.94;5027258;28;19921;-84
2022/02/11 12:39:05;;;;;;;;;;;;;;;3.80;43.59;100315.44;5027563;28;19943;-84
2022/02/11 12:41:43;;;;;;;;;;;;;;;3.92;40.54;100323.31;5026755;28;19923;-85
2022/02/11 12:44:09;;;;;;;;;;;;;;;3.92;41.22;100327.53;5017880;28;19923;-85
2022/02/11 12:46:34;;;;;;;;;;;;;;;3.96;40.81;100324.19;5027654;28;19917;-87
2022/02/11 12:48:59;;;;;;;;;;;;;;;4.49;38.17;100315.63;5026622;28;20074;-87
2022/02/11 12:51:25;;;;;;;;;;;;;;;4.55;37.89;100303.81;5016664;28;19996;-87
2022/02/11 12:54:01;;;;;;;;;;;;;;;4.51;40.09;100309.72;5022375;28;20285;-86
2022/02/11 12:56:33;;;;;;;;;;;;;;;4.39;41.87;100310.41;5009558;28;20372;-87
2022/02/11 12:59:07;;;;;;;;;;;;;;;4.28;47.86;100311.94;5026398;28;19917;-85
2022/02/11 13:01:33;;;;;;;;;;;;;;;4.36;48.21;100297.63;5057284;28;19928;-85
2022/02/11 13:03:58;;;;;;;;;;;;;;;4.63;48.36;100303.06;5052768;28;19913;-86
2022/02/11 13:06:23;;;;;;;;;;;;;;;4.55;50.26;100296.16;5046971;28;20383;-86
2022/02/11 13:08:49;;;;;;;;;;;;;;;4.58;52.20;100296.22;5031983;28;19912;-87
2022/02/11 13:11:15;;;;;;;;;;;;;;;4.64;50.83;100300.53;5050702;28;20007;-87
2022/02/11 13:13:40;;;;;;;;;;;;;;;4.45;55.22;100309.66;5048430;28;19920;-85
2022/02/11 13:16:05;;;;;;;;;;;;;;;4.42;57.03;100314.69;5025839;28;20414;-86
2022/02/11 13:18:32;;;;;;;;;;;;;;;4.51;57.95;100304.63;5031294;28;20349;-87
2022/02/11 13:21:04;;;;;;;;;;;;;;;4.50;61.20;100312.28;5050844;28;20367;-85
2022/02/11 13:23:29;;;;;;;;;;;;;;;4.52;62.17;100315.69;5037546;28;19921;-86
2022/02/11 13:25:55;;;;;;;;;;;;;;;4.48;63.04;100330.09;5053400;28;19923;-84
2022/02/11 13:28:21;;;;;;;;;;;;;;;4.46;65.05;100326.66;5049122;28;19921;-83
2022/02/11 13:30:54;;;;;;;;;;;;;;;4.58;67.08;100337.06;5043309;28;19976;-84
2022/02/11 13:33:23;;;;;;;;;;;;;;;4.83;70.33;100334.81;5027602;28;19917;-86
2022/02/11 13:35:50;;;;;;;;;;;;;;;4.63;74.10;100354.09;5044460;28;20454;-87
2022/02/11 13:38:34;;;;;;;;;;;;;;;3.64;76.93;100393.31;5043523;28;19925;-83
2022/02/11 13:41:07;;;;;;;;;;;;;;;3.49;66.06;100396.44;5041913;28;19924;-83
2022/02/11 13:43:53;;;;;;;;;;;;;;;2.94;59.25;100382.56;5044071;28;19916;-84
2022/02/11 13:46:24;;;;;;;;;;;;;;;2.67;52.80;100403.22;5039295;28;20289;-84
2022/02/11 13:49:10;;;;;;;;;;;;;;;2.75;46.02;100399.13;5042408;28;19916;-85
2022/02/11 13:51:36;;;;;;;;;;;;;;;2.79;39.80;100418.75;5050105;28;19940;-85
2022/02/11 13:54:12;;;;;;;;;;;;;;;2.99;38.42;100418.31;5049304;28;20445;-84
2022/02/11 13:56:41;;;;;;;;;;;;;;;3.12;37.15;100422.81;5049783;28;19916;-84
2022/02/11 13:59:08;;;;;;;;;;;;;;;3.21;34.10;100430.66;5039673;28;19916;-83
2022/02/11 14:01:38;;;;;;;;;;;;;;;3.27;31.33;100430.78;5040834;28;19920;-84
2022/02/11 14:04:04;;;;;;;;;;;;;;;3.23;32.47;100434.09;5049329;28;19921;-84
2022/02/11 14:06:36;;;;;;;;;;;;;;;3.36;33.27;100430.13;5042025;28;19922;-85
2022/02/11 14:09:01;;;;;;;;;;;;;;;3.48;33.70;100432.91;5043900;28;20276;-84
2022/02/11 14:11:27;;;;;;;;;;;;;;;3.54;34.55;100427.09;5040540;28;19920;-84
2022/02/11 14:13:52;;;;;;;;;;;;;;;3.66;34.64;100431.56;5027456;28;20481;-83
2022/02/11 14:16:18;;;;;;;;;;;;;;;3.82;34.38;100448.00;5040724;28;19913;-86
2022/02/11 14:18:45;;;;;;;;;;;;;;;3.47;36.01;100438.00;5049509;28;19919;-84
2022/02/11 14:21:16;;;;;;;;;;;;;;;3.48;34.23;100448.19;5042131;28;20405;-84
2022/02/11 14:23:41;;;;;;;;;;;;;;;3.53;33.19;100466.09;5047348;28;19916;-82
2022/02/11 14:26:06;;;;;;;;;;;;;;;3.69;31.36;100452.84;5060040;28;20000;-88
2022/02/11 14:28:34;;;;;;;;;;;;;;;3.65;32.83;100451.09;5043073;28;19923;-84
2022/02/11 14:30:59;;;;;;;;;;;;;;;3.80;31.59;100459.84;5049336;28;19921;-83
2022/02/11 14:33:25;;;;;;;;;;;;;;;3.75;33.37;100463.16;5046371;28;19939;-86
2022/02/11 14:35:50;;;;;;;;;;;;;;;3.91;35.22;100464.31;5034653;28;19917;-87
2022/02/11 14:38:15;;;;;;;;;;;;;;;3.86;36.91;100462.50;5029394;28;19921;-87
2022/02/11 14:41:45;;;;;;;;;;;;;;;3.77;37.65;100460.66;5034240;28;19912;-86
2022/02/11 14:43:26;;;;;;;;;;;;;;;3.73;37.44;100467.34;5046056;28;19920;-85
2022/02/11 14:45:51;;;;;;;;;;;;;;;3.85;34.98;100468.44;5030183;28;19927;-88
2022/02/11 14:48:17;;;;;;;;;;;;;;;3.69;36.40;100477.47;5030117;28;19927;-88
2022/02/11 14:50:42;;;;;;;;;;;;;;;3.76;37.21;100485.28;5029857;28;19925;-84
2022/02/11 14:53:07;;;;;;;;;;;;;;;3.81;38.01;100484.47;5028751;28;19916;-85
2022/02/11 14:55:32;;;;;;;;;;;;;;;3.68;40.56;100479.16;5039193;28;19913;-84
2022/02/11 14:57:58;;;;;;;;;;;;;;;3.79;38.77;100484.47;5048066;28;19963;-85
2022/02/11 15:00:24;;;;;;;;;;;;;;;4.06;36.89;100496.88;5023738;28;19912;-85
2022/02/11 15:02:49;;;;;;;;;;;;;;;3.94;40.66;100491.53;5049724;28;20123;-87
2022/02/11 15:05:14;;;;;;;;;;;;;;;4.08;39.26;100505.41;5026101;28;19931;-88
2022/02/11 15:07:42;;;;;;;;;;;;;;;4.00;40.34;100499.31;5030336;28;19927;-84
2022/02/11 15:10:07;;;;;;;;;;;;;;;3.88;42.25;100501.63;5025483;28;20506;-84
2022/02/11 15:12:33;;;;;;;;;;;;;;;4.01;41.12;100498.47;5045621;28;19913;-87
2022/02/11 15:14:58;;;;;;;;;;;;;;;4.14;42.51;100515.72;5045758;28;20019;-88
2022/02/11 15:17:24;;;;;;;;;;;;;;;4.07;45.08;100506.22;5043012;28;19931;-87
2022/02/11 15:19:49;;;;;;;;;;;;;;;4.12;44.44;100513.97;5021955;28;19917;-85
2022/02/11 15:22:14;;;;;;;;;;;;;;;4.09;45.27;100514.78;5023480;28;19990;-85
2022/02/11 15:24:44;;;;;;;;;;;;;;;4.34;44.58;100520.31;5023860;28;20277;-84
2022/02/11 15:27:10;;;;;;;;;;;;;;;4.23;46.05;100514.16;5031277;28;20387;-85
2022/02/11 15:29:35;;;;;;;;;;;;;;;4.04;46.89;100515.50;5044018;28;19928;-85
2022/02/11 15:32:00;;;;;;;;;;;;;;;4.14;47.70;100517.41;5040830;28;19982;-85
2022/02/11 15:34:25;;;;;;;;;;;;;;;4.03;48.84;100524.84;5022604;28;20271;-83
2022/02/11 15:36:51;;;;;;;;;;;;;;;4.06;48.92;100530.03;5043195;28;19948;-84
2022/02/11 15:39:16;;;;;;;;;;;;;;;3.83;51.99;100541.44;5051673;28;19917;-84
2022/02/11 15:41:41;;;;;;;;;;;;;;;3.78;55.66;100539.66;5027109;28;19974;-86
2022/02/11 15:44:07;;;;;;;;;;;;;;;3.82;55.48;100535.47;5048054;28;19913;-84
2022/02/11 15:46:32;;;;;;;;;;;;;;;3.92;56.18;100544.16;5049288;28;19943;-84
2022/02/11 15:48:57;;;;;;;;;;;;;;;3.85;58.15;100555.91;5033763;28;19966;-86
2022/02/11 15:51:22;;;;;;;;;;;;;;;3.90;62.64;100564.53;5034163;28;19932;-84
2022/02/11 15:53:48;;;;;;;;;;;;;;;4.00;63.73;100565.59;5034308;28;19916;-84
2022/02/11 15:56:13;;;;;;;;;;;;;;;3.76;65.62;100569.34;5049672;28;19980;-86
2022/02/11 15:58:38;;;;;;;;;;;;;;;4.11;66.69;100568.34;5036827;28;19923;-87
2022/02/11 16:01:04;;;;;;;;;;;;;;;4.00;68.38;100573.22;5034152;28;20419;-86
2022/02/11 16:03:29;;;;;;;;;;;;;;;4.00;71.35;100573.22;5028342;28;19992;-86
2022/02/11 16:05:55;;;;;;;;;;;;;;;4.19;71.67;100562.53;5046906;28;19975;-85
2022/02/11 16:08:20;;;;;;;;;;;;;;;3.92;78.14;100575.63;5053986;28;19962;-86
2022/02/11 16:10:46;;;;;;;;;;;;;;;3.97;80.41;100585.91;5047507;28;19931;-86
2022/02/11 16:13:11;;;;;;;;;;;;;;;3.81;84.37;100584.75;5046405;28;20400;-86
2022/02/11 16:15:36;;;;;;;;;;;;;;;3.91;87.91;100590.88;5029246;28;19920;-85
2022/02/11 16:18:05;;;;;;;;;;;;;;;4.05;89.86;100596.25;5040037;28;19921;-84
2022/02/11 16:20:30;;;;;;;;;;;;;;;3.93;92.98;100594.31;5049039;28;20013;-86
2022/02/11 16:22:55;;;;;;;;;;;;;;;3.95;94.92;100590.13;5062176;28;19921;-84
2022/02/11 16:25:21;;;;;;;;;;;;;;;4.00;96.78;100592.75;5034740;28;19931;-84
2022/02/11 16:27:46;;;;;;;;;;;;;;;3.86;100.00;100597.59;5058435;28;19947;-88
2022/02/11 16:30:11;;;;;;;;;;;;;;;3.87;100.00;100599.28;5054185;28;20375;-86
2022/02/11 16:32:37;;;;;;;;;;;;;;;3.84;100.00;100604.34;5057139;28;19917;-87
2022/02/11 16:35:02;;;;;;;;;;;;;;;3.89;100.00;100607.81;5034592;28;20315;-85
2022/02/11 16:37:27;;;;;;;;;;;;;;;3.99;100.00;100614.81;5052178;28;19927;-86
2022/02/11 16:39:53;;;;;;;;;;;;;;;4.02;100.00;100619.16;5039782;28;20518;-84
2022/02/11 16:42:18;;;;;;;;;;;;;;;4.12;100.00;100614.25;5038927;28;19920;-85
2022/02/11 16:44:43;;;;;;;;;;;;;;;3.88;100.00;100617.16;5046974;28;19916;-84
2022/02/11 16:47:09;;;;;;;;;;;;;;;3.92;100.00;100628.28;5031987;28;19921;-86
2022/02/11 16:49:34;;;;;;;;;;;;;;;3.83;100.00;100630.63;5044017;28;19948;-84